sensor_id;sensor_type;location;lat;lon;timestamp;P1;durP1;ratioP1;P2;durP2;ratioP2
19456;SDS011;9867;48.094;11.478;2023-08-24T00:01:20;7.77;;;5.30;;
19456;SDS011;9867;48.094;11.478;2023-08-24T00:03:48;9.57;;;5.10;;
19456;SDS011;9867;48.094;11.478;2023-08-24T00:06:17;7.93;;;5.20;;
19456;SDS011;9867;48.094;11.478;2023-08-24T00:08:44;5.77;;;4.90;;
19456;SDS011;9867;48.094;11.478;2023-08-24T00:11:14;6.13;;;5.30;;
19456;SDS011;9867;48.094;11.478;2023-08-24T00:13:45;6.30;;;5.03;;
19456;SDS011;9867;48.094;11.478;2023-08-24T00:16:17;7.20;;;5.23;;
19456;SDS011;9867;48.094;11.478;2023-08-24T00:18:46;7.03;;;5.47;;
19456;SDS011;9867;48.094;11.478;2023-08-24T00:21:14;6.23;;;5.20;;
19456;SDS011;9867;48.094;11.478;2023-08-24T00:23:43;6.50;;;5.80;;
19456;SDS011;9867;48.094;11.478;2023-08-24T00:26:11;6.20;;;5.60;;
19456;SDS011;9867;48.094;11.478;2023-08-24T00:28:39;7.47;;;5.40;;
19456;SDS011;9867;48.094;11.478;2023-08-24T00:31:07;8.40;;;5.83;;
19456;SDS011;9867;48.094;11.478;2023-08-24T00:33:37;6.77;;;5.70;;
19456;SDS011;9867;48.094;11.478;2023-08-24T00:36:06;8.30;;;5.50;;
19456;SDS011;9867;48.094;11.478;2023-08-24T00:38:34;6.60;;;5.70;;
19456;SDS011;9867;48.094;11.478;2023-08-24T00:41:03;6.67;;;5.30;;
19456;SDS011;9867;48.094;11.478;2023-08-24T00:43:31;6.50;;;5.80;;
19456;SDS011;9867;48.094;11.478;2023-08-24T00:45:59;6.83;;;5.33;;
19456;SDS011;9867;48.094;11.478;2023-08-24T00:48:29;7.13;;;5.73;;
19456;SDS011;9867;48.094;11.478;2023-08-24T00:51:00;6.07;;;5.47;;
19456;SDS011;9867;48.094;11.478;2023-08-24T00:53:31;6.87;;;5.90;;
19456;SDS011;9867;48.094;11.478;2023-08-24T00:55:59;6.90;;;6.30;;
19456;SDS011;9867;48.094;11.478;2023-08-24T00:58:28;7.77;;;5.77;;
19456;SDS011;9867;48.094;11.478;2023-08-24T01:00:57;6.30;;;5.70;;
19456;SDS011;9867;48.094;11.478;2023-08-24T01:03:25;7.00;;;5.70;;
19456;SDS011;9867;48.094;11.478;2023-08-24T01:05:53;7.53;;;5.97;;
19456;SDS011;9867;48.094;11.478;2023-08-24T01:08:24;7.97;;;6.03;;
19456;SDS011;9867;48.094;11.478;2023-08-24T01:10:54;6.30;;;5.73;;
19456;SDS011;9867;48.094;11.478;2023-08-24T01:13:30;6.00;;;5.33;;
19456;SDS011;9867;48.094;11.478;2023-08-24T01:16:04;6.77;;;6.03;;
19456;SDS011;9867;48.094;11.478;2023-08-24T01:18:37;10.17;;;6.27;;
19456;SDS011;9867;48.094;11.478;2023-08-24T01:21:06;10.70;;;6.40;;
19456;SDS011;9867;48.094;11.478;2023-08-24T01:23:40;7.03;;;6.17;;
19456;SDS011;9867;48.094;11.478;2023-08-24T01:26:13;6.23;;;5.60;;
19456;SDS011;9867;48.094;11.478;2023-08-24T01:28:44;8.30;;;6.00;;
19456;SDS011;9867;48.094;11.478;2023-08-24T01:31:15;6.20;;;5.63;;
19456;SDS011;9867;48.094;11.478;2023-08-24T01:33:47;7.43;;;5.60;;
19456;SDS011;9867;48.094;11.478;2023-08-24T01:36:15;6.37;;;5.87;;
19456;SDS011;9867;48.094;11.478;2023-08-24T01:38:44;6.93;;;5.77;;
19456;SDS011;9867;48.094;11.478;2023-08-24T01:41:24;8.77;;;6.40;;
19456;SDS011;9867;48.094;11.478;2023-08-24T01:43:55;6.80;;;5.83;;
19456;SDS011;9867;48.094;11.478;2023-08-24T01:46:28;6.30;;;5.80;;
19456;SDS011;9867;48.094;11.478;2023-08-24T01:48:58;6.20;;;5.70;;
19456;SDS011;9867;48.094;11.478;2023-08-24T01:51:27;6.57;;;5.87;;
19456;SDS011;9867;48.094;11.478;2023-08-24T01:53:56;6.70;;;6.03;;
19456;SDS011;9867;48.094;11.478;2023-08-24T01:56:26;6.63;;;6.03;;
19456;SDS011;9867;48.094;11.478;2023-08-24T01:58:54;7.80;;;6.07;;
19456;SDS011;9867;48.094;11.478;2023-08-24T02:01:23;6.57;;;5.93;;
19456;SDS011;9867;48.094;11.478;2023-08-24T02:03:52;9.83;;;5.70;;
19456;SDS011;9867;48.094;11.478;2023-08-24T02:06:20;6.63;;;6.10;;
19456;SDS011;9867;48.094;11.478;2023-08-24T02:08:48;6.80;;;6.10;;
19456;SDS011;9867;48.094;11.478;2023-08-24T02:11:16;9.77;;;6.40;;
19456;SDS011;9867;48.094;11.478;2023-08-24T02:13:45;6.73;;;6.10;;
19456;SDS011;9867;48.094;11.478;2023-08-24T02:16:13;6.20;;;5.70;;
19456;SDS011;9867;48.094;11.478;2023-08-24T02:18:41;9.23;;;5.90;;
19456;SDS011;9867;48.094;11.478;2023-08-24T02:21:09;8.83;;;6.27;;
19456;SDS011;9867;48.094;11.478;2023-08-24T02:23:39;7.50;;;6.10;;
19456;SDS011;9867;48.094;11.478;2023-08-24T02:26:07;6.93;;;6.20;;
19456;SDS011;9867;48.094;11.478;2023-08-24T02:28:36;6.53;;;5.93;;
19456;SDS011;9867;48.094;11.478;2023-08-24T02:31:06;9.37;;;6.30;;
19456;SDS011;9867;48.094;11.478;2023-08-24T02:33:35;6.40;;;5.80;;
19456;SDS011;9867;48.094;11.478;2023-08-24T02:36:04;6.80;;;6.10;;
19456;SDS011;9867;48.094;11.478;2023-08-24T02:38:32;6.43;;;5.77;;
19456;SDS011;9867;48.094;11.478;2023-08-24T02:41:00;7.33;;;6.00;;
19456;SDS011;9867;48.094;11.478;2023-08-24T02:43:29;6.90;;;6.20;;
19456;SDS011;9867;48.094;11.478;2023-08-24T02:46:00;7.67;;;6.37;;
19456;SDS011;9867;48.094;11.478;2023-08-24T02:48:32;7.97;;;5.60;;
19456;SDS011;9867;48.094;11.478;2023-08-24T02:51:02;7.73;;;6.03;;
19456;SDS011;9867;48.094;11.478;2023-08-24T02:53:31;6.30;;;5.70;;
19456;SDS011;9867;48.094;11.478;2023-08-24T02:56:00;6.47;;;5.87;;
19456;SDS011;9867;48.094;11.478;2023-08-24T02:58:28;7.17;;;6.53;;
19456;SDS011;9867;48.094;11.478;2023-08-24T03:00:57;6.27;;;5.63;;
19456;SDS011;9867;48.094;11.478;2023-08-24T03:03:25;6.50;;;6.00;;
19456;SDS011;9867;48.094;11.478;2023-08-24T03:05:57;9.13;;;6.13;;
19456;SDS011;9867;48.094;11.478;2023-08-24T03:08:27;6.77;;;6.00;;
19456;SDS011;9867;48.094;11.478;2023-08-24T03:10:56;6.80;;;6.27;;
19456;SDS011;9867;48.094;11.478;2023-08-24T03:13:25;6.43;;;5.83;;
19456;SDS011;9867;48.094;11.478;2023-08-24T03:15:54;6.27;;;5.67;;
19456;SDS011;9867;48.094;11.478;2023-08-24T03:18:26;6.50;;;6.00;;
19456;SDS011;9867;48.094;11.478;2023-08-24T03:20:55;6.87;;;6.17;;
19456;SDS011;9867;48.094;11.478;2023-08-24T03:23:25;7.30;;;6.20;;
19456;SDS011;9867;48.094;11.478;2023-08-24T03:25:53;7.07;;;6.40;;
19456;SDS011;9867;48.094;11.478;2023-08-24T03:28:24;7.80;;;5.83;;
19456;SDS011;9867;48.094;11.478;2023-08-24T03:30:52;6.43;;;5.83;;
19456;SDS011;9867;48.094;11.478;2023-08-24T03:33:22;7.90;;;5.80;;
19456;SDS011;9867;48.094;11.478;2023-08-24T03:35:50;7.03;;;5.97;;
19456;SDS011;9867;48.094;11.478;2023-08-24T03:38:20;6.30;;;5.80;;
19456;SDS011;9867;48.094;11.478;2023-08-24T03:40:50;5.90;;;5.40;;
19456;SDS011;9867;48.094;11.478;2023-08-24T03:43:18;6.50;;;5.90;;
19456;SDS011;9867;48.094;11.478;2023-08-24T03:45:46;7.17;;;6.43;;
19456;SDS011;9867;48.094;11.478;2023-08-24T03:48:14;6.77;;;6.00;;
19456;SDS011;9867;48.094;11.478;2023-08-24T03:50:42;7.23;;;5.93;;
19456;SDS011;9867;48.094;11.478;2023-08-24T03:53:11;7.90;;;6.33;;
19456;SDS011;9867;48.094;11.478;2023-08-24T03:55:41;6.70;;;6.03;;
19456;SDS011;9867;48.094;11.478;2023-08-24T03:58:09;7.67;;;6.43;;
19456;SDS011;9867;48.094;11.478;2023-08-24T04:00:37;6.77;;;6.10;;
19456;SDS011;9867;48.094;11.478;2023-08-24T04:03:06;7.73;;;6.00;;
19456;SDS011;9867;48.094;11.478;2023-08-24T04:05:34;6.70;;;6.00;;
19456;SDS011;9867;48.094;11.478;2023-08-24T04:08:05;6.53;;;5.90;;
19456;SDS011;9867;48.094;11.478;2023-08-24T04:10:33;6.17;;;5.60;;
19456;SDS011;9867;48.094;11.478;2023-08-24T04:13:03;7.60;;;6.00;;
19456;SDS011;9867;48.094;11.478;2023-08-24T04:15:31;7.57;;;6.50;;
19456;SDS011;9867;48.094;11.478;2023-08-24T04:17:59;7.40;;;6.47;;
19456;SDS011;9867;48.094;11.478;2023-08-24T04:20:27;6.57;;;5.97;;
19456;SDS011;9867;48.094;11.478;2023-08-24T04:22:55;7.77;;;7.00;;
19456;SDS011;9867;48.094;11.478;2023-08-24T04:25:23;6.77;;;6.17;;
19456;SDS011;9867;48.094;11.478;2023-08-24T04:27:52;6.80;;;6.20;;
19456;SDS011;9867;48.094;11.478;2023-08-24T04:30:21;6.40;;;5.70;;
19456;SDS011;9867;48.094;11.478;2023-08-24T04:32:51;6.80;;;6.20;;
19456;SDS011;9867;48.094;11.478;2023-08-24T04:35:19;6.90;;;6.10;;
19456;SDS011;9867;48.094;11.478;2023-08-24T04:37:47;6.90;;;6.20;;
19456;SDS011;9867;48.094;11.478;2023-08-24T04:40:15;7.30;;;6.60;;
19456;SDS011;9867;48.094;11.478;2023-08-24T04:42:43;7.53;;;5.93;;
19456;SDS011;9867;48.094;11.478;2023-08-24T04:45:12;6.67;;;6.03;;
19456;SDS011;9867;48.094;11.478;2023-08-24T04:47:42;6.97;;;6.37;;
19456;SDS011;9867;48.094;11.478;2023-08-24T04:50:10;8.03;;;6.57;;
19456;SDS011;9867;48.094;11.478;2023-08-24T04:52:38;7.23;;;6.53;;
19456;SDS011;9867;48.094;11.478;2023-08-24T04:55:07;7.00;;;6.40;;
19456;SDS011;9867;48.094;11.478;2023-08-24T04:57:36;7.03;;;6.10;;
19456;SDS011;9867;48.094;11.478;2023-08-24T05:00:05;6.97;;;6.10;;
19456;SDS011;9867;48.094;11.478;2023-08-24T05:02:34;6.53;;;5.93;;
19456;SDS011;9867;48.094;11.478;2023-08-24T05:05:04;7.00;;;6.40;;
19456;SDS011;9867;48.094;11.478;2023-08-24T05:07:37;7.87;;;6.40;;
19456;SDS011;9867;48.094;11.478;2023-08-24T05:10:06;7.30;;;6.67;;
19456;SDS011;9867;48.094;11.478;2023-08-24T05:12:34;7.60;;;6.50;;
19456;SDS011;9867;48.094;11.478;2023-08-24T05:15:02;7.47;;;6.50;;
19456;SDS011;9867;48.094;11.478;2023-08-24T05:17:31;7.23;;;6.57;;
19456;SDS011;9867;48.094;11.478;2023-08-24T05:19:59;9.17;;;6.43;;
19456;SDS011;9867;48.094;11.478;2023-08-24T05:22:28;11.60;;;6.13;;
19456;SDS011;9867;48.094;11.478;2023-08-24T05:24:56;9.47;;;7.33;;
19456;SDS011;9867;48.094;11.478;2023-08-24T05:27:24;6.77;;;6.17;;
19456;SDS011;9867;48.094;11.478;2023-08-24T05:29:52;8.20;;;6.60;;
19456;SDS011;9867;48.094;11.478;2023-08-24T05:32:22;7.37;;;6.77;;
19456;SDS011;9867;48.094;11.478;2023-08-24T05:34:52;7.10;;;6.40;;
19456;SDS011;9867;48.094;11.478;2023-08-24T05:37:20;7.43;;;6.63;;
19456;SDS011;9867;48.094;11.478;2023-08-24T05:39:50;7.33;;;6.63;;
19456;SDS011;9867;48.094;11.478;2023-08-24T05:42:18;9.00;;;6.90;;
19456;SDS011;9867;48.094;11.478;2023-08-24T05:44:46;8.20;;;7.40;;
19456;SDS011;9867;48.094;11.478;2023-08-24T05:47:14;8.10;;;7.40;;
19456;SDS011;9867;48.094;11.478;2023-08-24T05:49:42;7.70;;;7.10;;
19456;SDS011;9867;48.094;11.478;2023-08-24T05:52:10;7.60;;;6.90;;
19456;SDS011;9867;48.094;11.478;2023-08-24T05:54:38;7.63;;;6.90;;
19456;SDS011;9867;48.094;11.478;2023-08-24T05:57:07;20.20;;;7.50;;
19456;SDS011;9867;48.094;11.478;2023-08-24T05:59:35;8.83;;;7.97;;
19456;SDS011;9867;48.094;11.478;2023-08-24T06:02:03;8.77;;;7.80;;
19456;SDS011;9867;48.094;11.478;2023-08-24T06:04:31;7.80;;;7.00;;
19456;SDS011;9867;48.094;11.478;2023-08-24T06:06:59;8.53;;;7.60;;
19456;SDS011;9867;48.094;11.478;2023-08-24T06:09:27;10.67;;;8.10;;
19456;SDS011;9867;48.094;11.478;2023-08-24T06:11:56;8.67;;;7.87;;
19456;SDS011;9867;48.094;11.478;2023-08-24T06:14:26;10.40;;;8.23;;
19456;SDS011;9867;48.094;11.478;2023-08-24T06:16:54;8.33;;;7.60;;
19456;SDS011;9867;48.094;11.478;2023-08-24T06:19:22;9.13;;;8.23;;
19456;SDS011;9867;48.094;11.478;2023-08-24T06:21:50;8.03;;;7.20;;
19456;SDS011;9867;48.094;11.478;2023-08-24T06:24:18;10.60;;;7.90;;
19456;SDS011;9867;48.094;11.478;2023-08-24T06:26:46;9.03;;;8.23;;
19456;SDS011;9867;48.094;11.478;2023-08-24T06:29:14;8.90;;;7.80;;
19456;SDS011;9867;48.094;11.478;2023-08-24T06:31:43;8.87;;;8.17;;
19456;SDS011;9867;48.094;11.478;2023-08-24T06:34:12;9.07;;;8.17;;
19456;SDS011;9867;48.094;11.478;2023-08-24T06:36:40;8.70;;;7.80;;
19456;SDS011;9867;48.094;11.478;2023-08-24T06:39:08;12.30;;;7.93;;
19456;SDS011;9867;48.094;11.478;2023-08-24T06:41:36;10.93;;;7.50;;
19456;SDS011;9867;48.094;11.478;2023-08-24T06:44:06;9.90;;;7.80;;
19456;SDS011;9867;48.094;11.478;2023-08-24T06:46:35;9.10;;;8.20;;
19456;SDS011;9867;48.094;11.478;2023-08-24T06:49:04;12.23;;;7.70;;
19456;SDS011;9867;48.094;11.478;2023-08-24T06:51:32;8.57;;;7.80;;
19456;SDS011;9867;48.094;11.478;2023-08-24T06:54:00;11.83;;;7.60;;
19456;SDS011;9867;48.094;11.478;2023-08-24T06:56:29;14.43;;;7.73;;
19456;SDS011;9867;48.094;11.478;2023-08-24T06:58:58;12.17;;;7.93;;
19456;SDS011;9867;48.094;11.478;2023-08-24T07:01:26;8.97;;;7.00;;
19456;SDS011;9867;48.094;11.478;2023-08-24T07:03:54;10.93;;;7.30;;
19456;SDS011;9867;48.094;11.478;2023-08-24T07:06:24;11.33;;;6.90;;
19456;SDS011;9867;48.094;11.478;2023-08-24T07:08:52;11.83;;;7.33;;
19456;SDS011;9867;48.094;11.478;2023-08-24T07:11:20;9.33;;;7.23;;
19456;SDS011;9867;48.094;11.478;2023-08-24T07:13:49;8.10;;;6.80;;
19456;SDS011;9867;48.094;11.478;2023-08-24T07:16:20;7.90;;;7.20;;
19456;SDS011;9867;48.094;11.478;2023-08-24T07:18:48;10.00;;;7.37;;
19456;SDS011;9867;48.094;11.478;2023-08-24T07:21:16;8.53;;;7.23;;
19456;SDS011;9867;48.094;11.478;2023-08-24T07:23:46;8.83;;;7.10;;
19456;SDS011;9867;48.094;11.478;2023-08-24T07:26:14;9.70;;;7.40;;
19456;SDS011;9867;48.094;11.478;2023-08-24T07:28:42;9.00;;;6.93;;
19456;SDS011;9867;48.094;11.478;2023-08-24T07:31:10;8.27;;;7.40;;
19456;SDS011;9867;48.094;11.478;2023-08-24T07:33:43;11.83;;;7.83;;
19456;SDS011;9867;48.094;11.478;2023-08-24T07:36:11;8.50;;;7.50;;
19456;SDS011;9867;48.094;11.478;2023-08-24T07:38:42;8.33;;;7.13;;
19456;SDS011;9867;48.094;11.478;2023-08-24T07:41:13;11.63;;;7.37;;
19456;SDS011;9867;48.094;11.478;2023-08-24T07:43:43;8.27;;;6.80;;
19456;SDS011;9867;48.094;11.478;2023-08-24T07:46:12;13.27;;;7.17;;
19456;SDS011;9867;48.094;11.478;2023-08-24T07:48:40;9.77;;;6.90;;
19456;SDS011;9867;48.094;11.478;2023-08-24T07:51:08;10.43;;;6.90;;
19456;SDS011;9867;48.094;11.478;2023-08-24T07:53:36;9.20;;;7.13;;
19456;SDS011;9867;48.094;11.478;2023-08-24T07:56:04;7.43;;;6.73;;
19456;SDS011;9867;48.094;11.478;2023-08-24T07:58:34;11.90;;;6.90;;
19456;SDS011;9867;48.094;11.478;2023-08-24T08:01:02;11.37;;;7.33;;
19456;SDS011;9867;48.094;11.478;2023-08-24T08:03:31;11.17;;;7.93;;
19456;SDS011;9867;48.094;11.478;2023-08-24T08:06:00;8.13;;;6.90;;
19456;SDS011;9867;48.094;11.478;2023-08-24T08:08:28;9.70;;;6.90;;
19456;SDS011;9867;48.094;11.478;2023-08-24T08:10:59;8.33;;;6.57;;
19456;SDS011;9867;48.094;11.478;2023-08-24T08:13:29;8.33;;;6.60;;
19456;SDS011;9867;48.094;11.478;2023-08-24T08:16:02;7.77;;;6.27;;
19456;SDS011;9867;48.094;11.478;2023-08-24T08:18:31;6.90;;;6.30;;
19456;SDS011;9867;48.094;11.478;2023-08-24T08:21:00;7.23;;;6.53;;
19456;SDS011;9867;48.094;11.478;2023-08-24T08:23:30;7.90;;;6.70;;
19456;SDS011;9867;48.094;11.478;2023-08-24T08:25:58;8.70;;;6.60;;
19456;SDS011;9867;48.094;11.478;2023-08-24T08:28:26;7.07;;;6.33;;
19456;SDS011;9867;48.094;11.478;2023-08-24T08:30:54;8.93;;;6.40;;
19456;SDS011;9867;48.094;11.478;2023-08-24T08:33:23;10.60;;;6.47;;
19456;SDS011;9867;48.094;11.478;2023-08-24T08:35:51;7.13;;;5.93;;
19456;SDS011;9867;48.094;11.478;2023-08-24T08:38:19;8.70;;;6.10;;
19456;SDS011;9867;48.094;11.478;2023-08-24T08:40:53;8.07;;;5.93;;
19456;SDS011;9867;48.094;11.478;2023-08-24T08:43:26;10.80;;;6.27;;
19456;SDS011;9867;48.094;11.478;2023-08-24T08:45:54;6.80;;;6.20;;
19456;SDS011;9867;48.094;11.478;2023-08-24T08:48:25;7.97;;;6.07;;
19456;SDS011;9867;48.094;11.478;2023-08-24T08:50:53;6.73;;;6.03;;
19456;SDS011;9867;48.094;11.478;2023-08-24T08:53:23;12.07;;;6.13;;
19456;SDS011;9867;48.094;11.478;2023-08-24T08:55:51;7.33;;;5.80;;
19456;SDS011;9867;48.094;11.478;2023-08-24T08:58:21;8.17;;;5.97;;
19456;SDS011;9867;48.094;11.478;2023-08-24T09:00:49;7.60;;;5.70;;
19456;SDS011;9867;48.094;11.478;2023-08-24T09:03:19;7.77;;;5.63;;
19456;SDS011;9867;48.094;11.478;2023-08-24T09:05:49;10.00;;;5.47;;
19456;SDS011;9867;48.094;11.478;2023-08-24T09:08:17;8.07;;;6.03;;
19456;SDS011;9867;48.094;11.478;2023-08-24T09:10:45;6.77;;;5.80;;
19456;SDS011;9867;48.094;11.478;2023-08-24T09:13:14;7.27;;;6.03;;
19456;SDS011;9867;48.094;11.478;2023-08-24T09:15:41;7.33;;;5.77;;
19456;SDS011;9867;48.094;11.478;2023-08-24T09:18:10;7.73;;;5.37;;
19456;SDS011;9867;48.094;11.478;2023-08-24T09:20:38;6.30;;;5.70;;
19456;SDS011;9867;48.094;11.478;2023-08-24T09:23:10;7.57;;;5.93;;
19456;SDS011;9867;48.094;11.478;2023-08-24T09:25:45;8.50;;;5.57;;
19456;SDS011;9867;48.094;11.478;2023-08-24T09:28:14;6.67;;;5.47;;
19456;SDS011;9867;48.094;11.478;2023-08-24T09:30:52;7.83;;;5.93;;
19456;SDS011;9867;48.094;11.478;2023-08-24T09:33:21;7.50;;;5.63;;
19456;SDS011;9867;48.094;11.478;2023-08-24T09:35:57;8.27;;;5.40;;
19456;SDS011;9867;48.094;11.478;2023-08-24T09:38:29;8.30;;;5.80;;
19456;SDS011;9867;48.094;11.478;2023-08-24T09:40:57;9.13;;;6.30;;
19456;SDS011;9867;48.094;11.478;2023-08-24T09:43:25;7.63;;;5.30;;
19456;SDS011;9867;48.094;11.478;2023-08-24T09:45:55;6.60;;;5.33;;
19456;SDS011;9867;48.094;11.478;2023-08-24T09:48:27;7.23;;;5.20;;
19456;SDS011;9867;48.094;11.478;2023-08-24T09:50:55;8.63;;;5.10;;
19456;SDS011;9867;48.094;11.478;2023-08-24T09:53:24;5.47;;;4.90;;
19456;SDS011;9867;48.094;11.478;2023-08-24T09:55:58;6.00;;;4.80;;
19456;SDS011;9867;48.094;11.478;2023-08-24T09:58:28;6.70;;;4.93;;
19456;SDS011;9867;48.094;11.478;2023-08-24T10:00:57;5.90;;;5.30;;
19456;SDS011;9867;48.094;11.478;2023-08-24T10:03:28;6.23;;;4.93;;
19456;SDS011;9867;48.094;11.478;2023-08-24T10:06:00;7.37;;;5.40;;
19456;SDS011;9867;48.094;11.478;2023-08-24T10:08:35;6.10;;;5.07;;
19456;SDS011;9867;48.094;11.478;2023-08-24T10:11:06;7.87;;;5.20;;
19456;SDS011;9867;48.094;11.478;2023-08-24T10:13:43;8.43;;;5.47;;
19456;SDS011;9867;48.094;11.478;2023-08-24T10:16:21;8.20;;;4.80;;
19456;SDS011;9867;48.094;11.478;2023-08-24T10:18:50;7.83;;;4.93;;
19456;SDS011;9867;48.094;11.478;2023-08-24T10:21:19;5.10;;;4.60;;
19456;SDS011;9867;48.094;11.478;2023-08-24T10:23:47;7.90;;;5.30;;
19456;SDS011;9867;48.094;11.478;2023-08-24T10:26:17;10.57;;;4.67;;
19456;SDS011;9867;48.094;11.478;2023-08-24T10:28:47;6.83;;;4.90;;
19456;SDS011;9867;48.094;11.478;2023-08-24T10:31:18;6.03;;;4.27;;
19456;SDS011;9867;48.094;11.478;2023-08-24T10:33:47;5.67;;;4.60;;
19456;SDS011;9867;48.094;11.478;2023-08-24T10:36:16;9.17;;;4.87;;
19456;SDS011;9867;48.094;11.478;2023-08-24T10:38:44;11.17;;;5.17;;
19456;SDS011;9867;48.094;11.478;2023-08-24T10:41:12;5.27;;;4.03;;
19456;SDS011;9867;48.094;11.478;2023-08-24T10:43:48;6.10;;;4.30;;
19456;SDS011;9867;48.094;11.478;2023-08-24T10:46:17;6.53;;;4.50;;
19456;SDS011;9867;48.094;11.478;2023-08-24T10:48:56;8.40;;;4.13;;
19456;SDS011;9867;48.094;11.478;2023-08-24T10:51:26;9.83;;;4.20;;
19456;SDS011;9867;48.094;11.478;2023-08-24T10:53:55;10.37;;;4.63;;
19456;SDS011;9867;48.094;11.478;2023-08-24T10:56:29;6.13;;;3.70;;
19456;SDS011;9867;48.094;11.478;2023-08-24T10:59:12;6.13;;;3.77;;
19456;SDS011;9867;48.094;11.478;2023-08-24T11:01:41;9.63;;;4.53;;
19456;SDS011;9867;48.094;11.478;2023-08-24T11:04:10;7.13;;;4.30;;
19456;SDS011;9867;48.094;11.478;2023-08-24T11:06:52;7.87;;;4.73;;
19456;SDS011;9867;48.094;11.478;2023-08-24T11:09:22;8.03;;;4.00;;
19456;SDS011;9867;48.094;11.478;2023-08-24T11:11:57;8.60;;;4.53;;
19456;SDS011;9867;48.094;11.478;2023-08-24T11:14:27;13.50;;;4.40;;
19456;SDS011;9867;48.094;11.478;2023-08-24T11:16:58;11.37;;;4.63;;
19456;SDS011;9867;48.094;11.478;2023-08-24T11:19:27;8.63;;;4.10;;
19456;SDS011;9867;48.094;11.478;2023-08-24T11:21:57;13.80;;;4.50;;
19456;SDS011;9867;48.094;11.478;2023-08-24T11:24:26;7.37;;;5.33;;
19456;SDS011;9867;48.094;11.478;2023-08-24T11:26:55;7.43;;;4.40;;
19456;SDS011;9867;48.094;11.478;2023-08-24T11:29:24;5.50;;;3.77;;
19456;SDS011;9867;48.094;11.478;2023-08-24T11:31:53;7.50;;;3.93;;
19456;SDS011;9867;48.094;11.478;2023-08-24T11:34:22;7.40;;;3.60;;
19456;SDS011;9867;48.094;11.478;2023-08-24T11:36:50;9.10;;;4.30;;
19456;SDS011;9867;48.094;11.478;2023-08-24T11:39:19;8.33;;;3.67;;
19456;SDS011;9867;48.094;11.478;2023-08-24T11:41:59;8.93;;;3.73;;
19456;SDS011;9867;48.094;11.478;2023-08-24T11:44:28;12.87;;;3.67;;
19456;SDS011;9867;48.094;11.478;2023-08-24T11:46:58;9.60;;;3.70;;
19456;SDS011;9867;48.094;11.478;2023-08-24T11:49:26;8.87;;;3.47;;
19456;SDS011;9867;48.094;11.478;2023-08-24T11:51:55;11.07;;;4.00;;
19456;SDS011;9867;48.094;11.478;2023-08-24T11:54:23;8.57;;;4.00;;
19456;SDS011;9867;48.094;11.478;2023-08-24T11:56:51;9.97;;;4.30;;
19456;SDS011;9867;48.094;11.478;2023-08-24T11:59:19;6.33;;;3.70;;
19456;SDS011;9867;48.094;11.478;2023-08-24T12:01:48;8.90;;;4.20;;
19456;SDS011;9867;48.094;11.478;2023-08-24T12:04:17;10.53;;;4.30;;
19456;SDS011;9867;48.094;11.478;2023-08-24T12:06:45;10.97;;;4.33;;
19456;SDS011;9867;48.094;11.478;2023-08-24T12:09:13;6.43;;;3.53;;
19456;SDS011;9867;48.094;11.478;2023-08-24T12:11:42;8.80;;;4.17;;
19456;SDS011;9867;48.094;11.478;2023-08-24T12:14:16;10.37;;;3.90;;
19456;SDS011;9867;48.094;11.478;2023-08-24T12:16:45;9.27;;;3.77;;
19456;SDS011;9867;48.094;11.478;2023-08-24T12:19:17;10.87;;;3.83;;
19456;SDS011;9867;48.094;11.478;2023-08-24T12:21:49;9.60;;;4.00;;
19456;SDS011;9867;48.094;11.478;2023-08-24T12:24:18;13.20;;;4.83;;
19456;SDS011;9867;48.094;11.478;2023-08-24T12:26:54;7.90;;;3.97;;
19456;SDS011;9867;48.094;11.478;2023-08-24T12:29:23;10.00;;;4.60;;
19456;SDS011;9867;48.094;11.478;2023-08-24T12:31:51;10.53;;;4.00;;
19456;SDS011;9867;48.094;11.478;2023-08-24T12:34:26;10.23;;;3.83;;
19456;SDS011;9867;48.094;11.478;2023-08-24T12:36:54;12.23;;;4.20;;
19456;SDS011;9867;48.094;11.478;2023-08-24T12:39:22;10.03;;;4.53;;
19456;SDS011;9867;48.094;11.478;2023-08-24T12:41:49;9.20;;;4.40;;
19456;SDS011;9867;48.094;11.478;2023-08-24T12:44:18;7.07;;;3.93;;
19456;SDS011;9867;48.094;11.478;2023-08-24T12:46:46;6.90;;;3.87;;
19456;SDS011;9867;48.094;11.478;2023-08-24T12:49:14;9.00;;;4.20;;
19456;SDS011;9867;48.094;11.478;2023-08-24T12:51:43;9.77;;;4.03;;
19456;SDS011;9867;48.094;11.478;2023-08-24T12:54:11;9.93;;;3.57;;
19456;SDS011;9867;48.094;11.478;2023-08-24T12:56:39;13.33;;;4.10;;
19456;SDS011;9867;48.094;11.478;2023-08-24T12:59:08;12.87;;;4.07;;
19456;SDS011;9867;48.094;11.478;2023-08-24T13:01:36;10.07;;;4.20;;
19456;SDS011;9867;48.094;11.478;2023-08-24T13:04:04;11.43;;;4.17;;
19456;SDS011;9867;48.094;11.478;2023-08-24T13:06:33;8.10;;;4.03;;
19456;SDS011;9867;48.094;11.478;2023-08-24T13:09:02;8.30;;;4.30;;
19456;SDS011;9867;48.094;11.478;2023-08-24T13:11:31;13.17;;;4.17;;
19456;SDS011;9867;48.094;11.478;2023-08-24T13:14:00;12.63;;;4.40;;
19456;SDS011;9867;48.094;11.478;2023-08-24T13:16:28;10.63;;;4.30;;
19456;SDS011;9867;48.094;11.478;2023-08-24T13:18:56;9.83;;;3.90;;
19456;SDS011;9867;48.094;11.478;2023-08-24T13:21:24;11.23;;;4.10;;
19456;SDS011;9867;48.094;11.478;2023-08-24T13:23:53;15.03;;;4.43;;
19456;SDS011;9867;48.094;11.478;2023-08-24T13:26:22;8.33;;;4.10;;
19456;SDS011;9867;48.094;11.478;2023-08-24T13:28:50;14.70;;;4.10;;
19456;SDS011;9867;48.094;11.478;2023-08-24T13:31:19;11.50;;;4.53;;
19456;SDS011;9867;48.094;11.478;2023-08-24T13:33:46;12.93;;;4.20;;
19456;SDS011;9867;48.094;11.478;2023-08-24T13:36:14;19.40;;;4.43;;
19456;SDS011;9867;48.094;11.478;2023-08-24T13:38:43;17.87;;;4.47;;
19456;SDS011;9867;48.094;11.478;2023-08-24T13:41:12;15.17;;;4.57;;
19456;SDS011;9867;48.094;11.478;2023-08-24T13:43:42;14.60;;;4.30;;
19456;SDS011;9867;48.094;11.478;2023-08-24T13:46:10;12.23;;;4.00;;
19456;SDS011;9867;48.094;11.478;2023-08-24T13:48:38;19.13;;;4.47;;
19456;SDS011;9867;48.094;11.478;2023-08-24T13:51:06;17.60;;;4.57;;
19456;SDS011;9867;48.094;11.478;2023-08-24T13:53:35;14.60;;;4.90;;
19456;SDS011;9867;48.094;11.478;2023-08-24T13:56:04;10.60;;;4.37;;
19456;SDS011;9867;48.094;11.478;2023-08-24T13:58:32;17.33;;;4.43;;
19456;SDS011;9867;48.094;11.478;2023-08-24T14:01:02;10.27;;;4.30;;
19456;SDS011;9867;48.094;11.478;2023-08-24T14:03:30;13.43;;;4.47;;
19456;SDS011;9867;48.094;11.478;2023-08-24T14:05:58;9.43;;;4.13;;
19456;SDS011;9867;48.094;11.478;2023-08-24T14:08:26;12.60;;;4.83;;
19456;SDS011;9867;48.094;11.478;2023-08-24T14:10:54;18.07;;;5.00;;
19456;SDS011;9867;48.094;11.478;2023-08-24T14:13:22;13.13;;;4.43;;
19456;SDS011;9867;48.094;11.478;2023-08-24T14:15:51;17.53;;;4.67;;
19456;SDS011;9867;48.094;11.478;2023-08-24T14:18:21;17.67;;;5.07;;
19456;SDS011;9867;48.094;11.478;2023-08-24T14:20:49;15.03;;;4.33;;
19456;SDS011;9867;48.094;11.478;2023-08-24T14:23:18;14.20;;;4.37;;
19456;SDS011;9867;48.094;11.478;2023-08-24T14:25:46;13.37;;;4.60;;
19456;SDS011;9867;48.094;11.478;2023-08-24T14:28:21;10.63;;;4.57;;
19456;SDS011;9867;48.094;11.478;2023-08-24T14:30:50;17.57;;;4.40;;
19456;SDS011;9867;48.094;11.478;2023-08-24T14:33:20;15.40;;;4.57;;
19456;SDS011;9867;48.094;11.478;2023-08-24T14:35:49;14.77;;;4.60;;
19456;SDS011;9867;48.094;11.478;2023-08-24T14:38:18;15.17;;;4.40;;
19456;SDS011;9867;48.094;11.478;2023-08-24T14:40:46;14.40;;;4.73;;
19456;SDS011;9867;48.094;11.478;2023-08-24T14:43:14;16.30;;;4.70;;
19456;SDS011;9867;48.094;11.478;2023-08-24T14:45:42;14.03;;;4.40;;
19456;SDS011;9867;48.094;11.478;2023-08-24T14:48:10;13.93;;;4.70;;
19456;SDS011;9867;48.094;11.478;2023-08-24T14:50:40;16.63;;;4.57;;
19456;SDS011;9867;48.094;11.478;2023-08-24T14:53:08;18.20;;;4.63;;
19456;SDS011;9867;48.094;11.478;2023-08-24T14:55:37;21.60;;;5.20;;
19456;SDS011;9867;48.094;11.478;2023-08-24T14:58:05;15.20;;;4.57;;